Time;durP1;ratioP1;P1;durP2;ratioP2;P2;SDS_P1;SDS_P2;PMS_P1;PMS_P2;Temp;Humidity;BMP_temperature;BMP_pressure;BME280_temperature;BME280_humidity;BME280_pressure;Samples;Min_cycle;Max_cycle;Signal;HPM_P1;HPM_P2
2023/01/30 00:00:21;;;;;;;4.97;4.57;;;;;;;;;;4973876;28;20868;-67
2023/01/30 00:02:47;;;;;;;7.60;5.93;;;;;;;;;;4991618;28;20524;-67
2023/01/30 00:05:13;;;;;;;6.23;5.83;;;;;;;;;;4989234;28;20472;-67
2023/01/30 00:07:38;;;;;;;6.30;5.70;;;;;;;;;;4989686;28;20468;-67
2023/01/30 00:10:05;;;;;;;7.13;6.53;;;;;;;;;;4989313;28;20512;-67
2023/01/30 00:12:31;;;;;;;6.23;5.70;;;;;;;;;;4992634;28;20478;-67
2023/01/30 00:14:56;;;;;;;7.03;5.90;;;;;;;;;;4973417;28;20460;-68
2023/01/30 00:17:22;;;;;;;6.93;6.07;;;;;;;;;;4991614;28;20437;-67
2023/01/30 00:19:48;;;;;;;7.17;6.47;;;;;;;;;;4991802;28;20495;-67
2023/01/30 00:22:14;;;;;;;5.43;5.00;;;;;;;;;;4989673;28;20488;-68
2023/01/30 00:24:40;;;;;;;7.72;6.72;;;;;;;;;;4990157;28;20429;-67
2023/01/30 00:27:06;;;;;;;6.93;6.30;;;;;;;;;;4991308;28;20190;-67
2023/01/30 00:29:32;;;;;;;6.97;6.37;;;;;;;;;;4990906;28;20551;-68
2023/01/30 00:31:58;;;;;;;7.50;6.03;;;;;;;;;;4991924;28;20433;-67
2023/01/30 00:34:24;;;;;;;7.87;6.87;;;;;;;;;;4991755;28;20417;-67
2023/01/30 00:36:50;;;;;;;7.23;6.53;;;;;;;;;;4991811;28;20412;-68
2023/01/30 00:39:16;;;;;;;6.20;5.80;;;;;;;;;;4989728;28;20465;-67
2023/01/30 00:47:11;;;;;;;5.57;5.17;;;;;;;;;;4991795;28;20408;-70
2023/01/30 00:49:37;;;;;;;5.67;5.17;;;;;;;;;;4974446;28;21019;-68
2023/01/30 00:52:03;;;;;;;4.90;4.60;;;;;;;;;;4991606;28;20457;-68
2023/01/30 00:54:29;;;;;;;5.90;5.43;;;;;;;;;;4990973;28;20453;-68
2023/01/30 00:56:55;;;;;;;5.37;4.93;;;;;;;;;;4990518;28;20428;-68
2023/01/30 00:59:21;;;;;;;10.83;6.20;;;;;;;;;;4991240;28;20500;-68
2023/01/30 01:01:47;;;;;;;5.47;5.07;;;;;;;;;;4991164;28;20520;-67
2023/01/30 01:04:13;;;;;;;4.87;4.47;;;;;;;;;;4991313;28;20525;-68
2023/01/30 01:06:39;;;;;;;5.33;4.90;;;;;;;;;;4990283;28;20433;-66
2023/01/30 01:09:06;;;;;;;4.97;4.60;;;;;;;;;;4989099;28;20477;-68
2023/01/30 01:11:32;;;;;;;9.83;5.13;;;;;;;;;;4991466;28;20479;-68
2023/01/30 01:13:59;;;;;;;5.23;4.83;;;;;;;;;;4991312;28;20421;-69
2023/01/30 01:16:26;;;;;;;5.53;5.13;;;;;;;;;;4990510;28;20858;-67
2023/01/30 01:18:52;;;;;;;5.07;4.67;;;;;;;;;;4991060;28;20532;-67
2023/01/30 01:21:18;;;;;;;5.53;5.10;;;;;;;;;;4990983;28;20528;-69
2023/01/30 01:23:48;;;;;;;5.13;4.73;;;;;;;;;;4990308;28;20528;-67
2023/01/30 01:26:14;;;;;;;5.10;4.47;;;;;;;;;;4990107;28;20480;-68
2023/01/30 01:28:40;;;;;;;5.67;5.33;;;;;;;;;;4973190;28;20456;-68
2023/01/30 01:31:10;;;;;;;6.73;6.17;;;;;;;;;;4988914;28;20499;-67
2023/01/30 01:33:36;;;;;;;4.93;4.63;;;;;;;;;;4990723;28;20474;-68
2023/01/30 01:36:02;;;;;;;5.57;5.17;;;;;;;;;;4989377;28;20949;-69
2023/01/30 01:38:28;;;;;;;5.53;5.23;;;;;;;;;;4990292;28;20417;-69
2023/01/30 01:41:06;;;;;;;5.17;4.77;;;;;;;;;;4990321;28;20489;-67
2023/01/30 01:43:34;;;;;;;6.03;5.43;;;;;;;;;;4990817;28;20429;-68
2023/01/30 01:46:03;;;;;;;5.33;4.90;;;;;;;;;;4990075;28;20434;-68
2023/01/30 01:48:36;;;;;;;5.70;5.17;;;;;;;;;;4990186;28;20453;-67
2023/01/30 01:51:03;;;;;;;9.73;5.10;;;;;;;;;;4990710;28;20758;-67
2023/01/30 01:53:32;;;;;;;5.30;4.80;;;;;;;;;;4990368;28;20417;-68
2023/01/30 01:55:59;;;;;;;4.80;4.50;;;;;;;;;;4989667;28;20515;-69
2023/01/30 01:58:36;;;;;;;6.10;5.60;;;;;;;;;;4990305;28;20921;-69
2023/01/30 02:01:03;;;;;;;9.23;5.87;;;;;;;;;;4989374;28;20570;-67
2023/01/30 02:03:32;;;;;;;6.07;5.67;;;;;;;;;;4973141;28;21284;-68
2023/01/30 02:06:00;;;;;;;6.47;5.47;;;;;;;;;;4990059;28;20437;-70
2023/01/30 02:08:34;;;;;;;4.93;4.73;;;;;;;;;;4989807;28;20421;-67
2023/01/30 02:11:06;;;;;;;5.80;5.07;;;;;;;;;;4989676;28;20483;-67
2023/01/30 02:13:32;;;;;;;5.40;4.90;;;;;;;;;;4990171;28;20914;-68
2023/01/30 02:15:59;;;;;;;5.30;4.90;;;;;;;;;;4988985;28;21262;-68
2023/01/30 02:18:25;;;;;;;5.90;5.50;;;;;;;;;;4988537;28;20872;-68
2023/01/30 02:20:59;;;;;;;5.50;4.90;;;;;;;;;;4989436;28;20504;-68
2023/01/30 02:23:27;;;;;;;6.07;5.57;;;;;;;;;;4989999;28;20969;-67
2023/01/30 02:26:14;;;;;;;7.25;6.65;;;;;;;;;;4988402;28;20508;-69
2023/01/30 02:28:46;;;;;;;6.10;5.50;;;;;;;;;;4989824;28;20425;-67
2023/01/30 02:31:32;;;;;;;5.50;5.10;;;;;;;;;;4988719;28;20536;-67
2023/01/30 02:33:58;;;;;;;14.00;6.50;;;;;;;;;;4990324;28;20488;-67
2023/01/30 02:36:27;;;;;;;8.03;7.00;;;;;;;;;;4989908;28;20508;-68
2023/01/30 02:38:53;;;;;;;10.90;7.20;;;;;;;;;;4989705;28;20413;-69
2023/01/30 02:41:30;;;;;;;8.33;6.30;;;;;;;;;;4990143;28;20890;-69
2023/01/30 02:44:04;;;;;;;10.90;5.53;;;;;;;;;;4989846;28;20792;-67
2023/01/30 02:46:40;;;;;;;6.77;6.10;;;;;;;;;;4988741;28;20523;-68
2023/01/30 02:49:18;;;;;;;5.83;5.40;;;;;;;;;;4989743;28;20980;-68
2023/01/30 02:51:45;;;;;;;6.13;5.43;;;;;;;;;;4972506;28;20881;-70
2023/01/30 02:54:12;;;;;;;6.97;6.30;;;;;;;;;;4989655;28;20539;-67
2023/01/30 02:56:45;;;;;;;9.20;5.83;;;;;;;;;;4972705;28;20525;-71
2023/01/30 02:59:12;;;;;;;5.37;5.07;;;;;;;;;;4989010;28;20464;-67
2023/01/30 03:01:57;;;;;;;6.07;5.13;;;;;;;;;;4972540;28;20425;-68
2023/01/30 03:10:38;;;;;;;5.87;5.30;;;;;;;;;;4974339;28;21047;-69
2023/01/30 03:13:11;;;;;;;5.30;4.90;;;;;;;;;;4972979;28;20470;-67
2023/01/30 03:15:42;;;;;;;5.80;5.30;;;;;;;;;;4988456;28;20527;-67
2023/01/30 03:18:08;;;;;;;7.00;6.00;;;;;;;;;;4972119;28;20441;-68
2023/01/30 03:20:38;;;;;;;5.33;4.93;;;;;;;;;;4991878;28;20520;-68
2023/01/30 03:23:04;;;;;;;5.73;5.33;;;;;;;;;;4992893;28;20483;-67
2023/01/30 03:25:31;;;;;;;6.23;5.80;;;;;;;;;;4993198;28;20843;-67
2023/01/30 03:27:57;;;;;;;5.60;5.10;;;;;;;;;;4993359;28;20508;-69
2023/01/30 03:30:25;;;;;;;5.53;5.10;;;;;;;;;;4974901;28;20447;-68
2023/01/30 03:32:51;;;;;;;5.93;5.33;;;;;;;;;;4993190;28;20420;-67
2023/01/30 03:35:17;;;;;;;5.40;5.10;;;;;;;;;;4975599;28;20425;-68
2023/01/30 03:37:46;;;;;;;9.67;6.03;;;;;;;;;;4991645;28;20929;-68
2023/01/30 03:40:13;;;;;;;6.03;5.50;;;;;;;;;;4992844;28;20575;-69
2023/01/30 03:42:39;;;;;;;5.83;5.27;;;;;;;;;;4992946;28;20929;-67
2023/01/30 03:45:06;;;;;;;7.67;5.40;;;;;;;;;;4992022;28;20441;-68
2023/01/30 03:47:32;;;;;;;5.53;5.20;;;;;;;;;;4992141;28;20498;-67
2023/01/30 03:49:57;;;;;;;6.10;5.50;;;;;;;;;;4992515;28;20425;-68
2023/01/30 03:52:23;;;;;;;4.50;4.30;;;;;;;;;;4992975;28;20429;-68
2023/01/30 03:54:49;;;;;;;4.90;4.60;;;;;;;;;;4991738;28;20441;-70
2023/01/30 03:57:15;;;;;;;6.97;5.57;;;;;;;;;;4992648;28;20459;-68
2023/01/30 03:59:41;;;;;;;5.47;5.07;;;;;;;;;;4992368;28;20472;-68
2023/01/30 04:02:07;;;;;;;5.20;4.70;;;;;;;;;;4975111;28;20449;-68
2023/01/30 04:04:33;;;;;;;6.53;5.93;;;;;;;;;;4991902;28;20449;-68
2023/01/30 04:06:59;;;;;;;5.70;5.30;;;;;;;;;;4974901;28;21162;-67
2023/01/30 04:09:25;;;;;;;5.40;5.10;;;;;;;;;;4991253;28;20528;-68
2023/01/30 04:11:52;;;;;;;5.03;4.70;;;;;;;;;;4992419;28;20496;-68
2023/01/30 04:14:18;;;;;;;5.20;4.90;;;;;;;;;;4974603;28;20465;-71
2023/01/30 04:16:44;;;;;;;5.60;5.13;;;;;;;;;;4988777;28;20936;-67
2023/01/30 04:19:09;;;;;;;5.50;5.10;;;;;;;;;;4974326;28;20425;-68
2023/01/30 04:21:35;;;;;;;5.70;5.20;;;;;;;;;;4992673;28;20460;-67
2023/01/30 04:24:01;;;;;;;3.90;3.73;;;;;;;;;;4991924;28;20436;-71
2023/01/30 04:26:27;;;;;;;6.37;5.87;;;;;;;;;;4992139;28;20437;-66
2023/01/30 04:28:53;;;;;;;4.93;4.43;;;;;;;;;;4990928;28;20448;-68
2023/01/30 04:31:19;;;;;;;4.97;4.53;;;;;;;;;;4992126;28;20417;-67
2023/01/30 04:33:45;;;;;;;5.27;4.80;;;;;;;;;;4989448;28;20451;-68
2023/01/30 04:36:11;;;;;;;5.07;4.77;;;;;;;;;;4991712;28;20788;-67
2023/01/30 04:38:38;;;;;;;5.97;5.37;;;;;;;;;;4991116;28;20425;-68
2023/01/30 04:41:04;;;;;;;6.23;5.63;;;;;;;;;;4991539;28;20496;-68
2023/01/30 04:43:30;;;;;;;4.80;4.50;;;;;;;;;;4973644;28;20481;-70
2023/01/30 04:45:57;;;;;;;5.70;5.20;;;;;;;;;;4990312;28;20441;-67
2023/01/30 04:48:23;;;;;;;5.63;5.23;;;;;;;;;;4990603;28;20453;-68
2023/01/30 04:50:50;;;;;;;5.87;5.37;;;;;;;;;;4991165;28;20468;-69
2023/01/30 04:53:16;;;;;;;5.50;5.30;;;;;;;;;;4990925;28;20437;-67
2023/01/30 04:55:42;;;;;;;6.37;5.90;;;;;;;;;;4989244;28;20448;-67
2023/01/30 04:58:08;;;;;;;5.50;5.00;;;;;;;;;;4990645;28;21083;-68
2023/01/30 05:00:34;;;;;;;6.50;6.03;;;;;;;;;;4990903;28;20477;-67
2023/01/30 05:03:00;;;;;;;5.07;4.77;;;;;;;;;;4988125;28;20460;-68
2023/01/30 05:05:27;;;;;;;11.17;6.10;;;;;;;;;;4989590;28;20964;-67
2023/01/30 05:07:53;;;;;;;6.40;5.87;;;;;;;;;;4990631;28;20445;-68
2023/01/30 05:10:19;;;;;;;6.73;6.03;;;;;;;;;;4989796;28;20487;-67
2023/01/30 05:12:45;;;;;;;5.97;5.47;;;;;;;;;;4973748;28;20537;-69
2023/01/30 05:15:12;;;;;;;6.60;6.00;;;;;;;;;;4988184;28;20451;-69
2023/01/30 05:17:38;;;;;;;7.63;6.10;;;;;;;;;;4991083;28;20923;-71
2023/01/30 05:20:05;;;;;;;6.83;6.23;;;;;;;;;;4973210;28;20568;-68
2023/01/30 05:22:31;;;;;;;9.30;6.50;;;;;;;;;;4991103;28;20437;-68
2023/01/30 05:24:57;;;;;;;6.37;5.97;;;;;;;;;;4989714;28;20551;-69
2023/01/30 05:27:23;;;;;;;6.93;6.23;;;;;;;;;;4990706;28;20440;-69
2023/01/30 05:29:49;;;;;;;7.20;6.47;;;;;;;;;;4972238;28;20481;-70
2023/01/30 05:32:16;;;;;;;6.30;5.80;;;;;;;;;;4990660;28;20436;-68
2023/01/30 05:34:41;;;;;;;6.90;5.97;;;;;;;;;;4990545;28;20437;-68
2023/01/30 05:37:08;;;;;;;6.23;5.80;;;;;;;;;;4989295;28;20448;-68
2023/01/30 05:39:34;;;;;;;6.37;5.77;;;;;;;;;;4989631;28;20576;-68
2023/01/30 05:42:00;;;;;;;7.73;7.00;;;;;;;;;;4989018;28;20445;-68
2023/01/30 05:44:26;;;;;;;5.33;4.93;;;;;;;;;;4972763;28;20809;-71
2023/01/30 05:46:52;;;;;;;6.33;5.80;;;;;;;;;;4989769;28;20516;-69
2023/01/30 05:49:18;;;;;;;7.53;5.77;;;;;;;;;;4988757;28;20437;-69
2023/01/30 05:51:44;;;;;;;6.10;5.60;;;;;;;;;;4990535;28;20500;-71
2023/01/30 05:54:09;;;;;;;6.73;5.80;;;;;;;;;;4972676;28;20432;-68
2023/01/30 05:56:35;;;;;;;5.77;5.37;;;;;;;;;;4989793;28;20449;-68
2023/01/30 05:59:02;;;;;;;7.90;6.33;;;;;;;;;;4990187;28;20961;-68
2023/01/30 06:01:28;;;;;;;5.87;5.10;;;;;;;;;;4988341;28;20477;-67
2023/01/30 06:03:54;;;;;;;5.93;5.47;;;;;;;;;;4989652;28;20856;-67
2023/01/30 06:06:21;;;;;;;6.20;5.70;;;;;;;;;;4987491;28;20929;-68
2023/01/30 06:08:47;;;;;;;5.77;5.27;;;;;;;;;;4987923;28;20441;-69
2023/01/30 06:11:14;;;;;;;6.50;5.90;;;;;;;;;;4990048;28;20819;-69
2023/01/30 06:13:41;;;;;;;7.20;6.50;;;;;;;;;;4990103;28;20441;-67
2023/01/30 06:16:07;;;;;;;6.80;6.30;;;;;;;;;;4985022;28;20452;-68
2023/01/30 06:18:34;;;;;;;9.03;5.90;;;;;;;;;;4989014;28;20527;-70
2023/01/30 06:21:00;;;;;;;5.67;5.13;;;;;;;;;;4983753;28;20502;-68
2023/01/30 06:23:26;;;;;;;7.60;6.90;;;;;;;;;;4987145;28;20441;-67
2023/01/30 06:25:54;;;;;;;7.67;6.97;;;;;;;;;;4987028;28;20433;-67
2023/01/30 06:28:21;;;;;;;7.43;6.67;;;;;;;;;;4987198;28;20425;-69
2023/01/30 06:30:47;;;;;;;6.40;5.87;;;;;;;;;;4987490;28;20933;-67
2023/01/30 06:33:13;;;;;;;8.63;6.63;;;;;;;;;;4988499;28;20455;-68
2023/01/30 06:35:40;;;;;;;6.17;5.67;;;;;;;;;;4987915;28;20796;-67
2023/01/30 06:38:08;;;;;;;6.03;5.47;;;;;;;;;;4988096;28;20515;-68
2023/01/30 06:40:34;;;;;;;6.30;5.80;;;;;;;;;;4984565;28;20989;-67
2023/01/30 06:43:00;;;;;;;19.60;8.40;;;;;;;;;;4987522;28;20448;-68
2023/01/30 06:45:26;;;;;;;6.70;6.10;;;;;;;;;;4988108;28;20959;-67
2023/01/30 06:47:53;;;;;;;7.13;6.23;;;;;;;;;;4987538;28;20441;-66
2023/01/30 06:50:20;;;;;;;7.03;6.53;;;;;;;;;;4988639;28;20535;-68
2023/01/30 06:52:47;;;;;;;5.77;5.47;;;;;;;;;;4989164;28;20957;-68
2023/01/30 06:55:14;;;;;;;6.40;5.90;;;;;;;;;;4991661;28;21004;-66
2023/01/30 06:57:40;;;;;;;6.03;5.53;;;;;;;;;;4992038;28;20433;-68
2023/01/30 07:00:08;;;;;;;6.97;6.47;;;;;;;;;;4991436;28;20484;-66
2023/01/30 07:02:34;;;;;;;7.47;5.60;;;;;;;;;;4992595;28;20543;-66
2023/01/30 07:05:01;;;;;;;7.53;6.50;;;;;;;;;;4991221;28;20433;-66
2023/01/30 07:07:27;;;;;;;7.10;6.27;;;;;;;;;;4992429;28;20421;-67
2023/01/30 07:09:53;;;;;;;7.00;6.37;;;;;;;;;;4991571;28;20448;-67
2023/01/30 07:12:19;;;;;;;6.13;5.70;;;;;;;;;;4991594;28;20468;-68
2023/01/30 07:14:45;;;;;;;6.37;5.77;;;;;;;;;;4991493;28;20500;-67
2023/01/30 07:17:11;;;;;;;8.67;7.47;;;;;;;;;;4993250;28;20972;-67
2023/01/30 07:19:37;;;;;;;7.43;6.10;;;;;;;;;;4992654;28;20571;-67
2023/01/30 07:22:04;;;;;;;9.73;5.93;;;;;;;;;;4992128;28;20436;-66
2023/01/30 07:24:30;;;;;;;7.20;6.33;;;;;;;;;;4992032;28;20524;-67
2023/01/30 07:26:56;;;;;;;6.60;6.10;;;;;;;;;;4992249;28;20937;-66
2023/01/30 07:29:22;;;;;;;7.17;6.63;;;;;;;;;;4991181;28;20467;-67
2023/01/30 07:31:48;;;;;;;6.43;5.93;;;;;;;;;;4991034;28;20436;-67
2023/01/30 07:34:14;;;;;;;6.87;6.30;;;;;;;;;;4991659;28;20944;-67
2023/01/30 07:36:40;;;;;;;7.27;6.40;;;;;;;;;;4991664;28;20533;-66
2023/01/30 07:39:08;;;;;;;6.97;6.27;;;;;;;;;;4991643;28;20448;-68
2023/01/30 07:41:34;;;;;;;8.43;7.53;;;;;;;;;;4974512;28;20532;-67
2023/01/30 07:44:00;;;;;;;6.47;5.87;;;;;;;;;;4991119;28;20508;-68
2023/01/30 07:46:27;;;;;;;6.63;6.07;;;;;;;;;;4991908;28;21076;-70
2023/01/30 07:48:53;;;;;;;7.10;6.50;;;;;;;;;;4990548;28;20707;-69
2023/01/30 07:51:19;;;;;;;7.90;7.10;;;;;;;;;;4991496;28;20801;-71
2023/01/30 07:53:49;;;;;;;8.70;7.70;;;;;;;;;;4991109;28;20428;-72
2023/01/30 07:56:17;;;;;;;7.47;6.83;;;;;;;;;;4992094;28;20506;-69
2023/01/30 07:58:43;;;;;;;6.63;6.17;;;;;;;;;;4991763;28;20425;-74
2023/01/30 08:01:09;;;;;;;9.47;7.60;;;;;;;;;;4974723;28;20493;-71
2023/01/30 08:03:35;;;;;;;7.47;6.63;;;;;;;;;;4992587;28;20417;-69
2023/01/30 08:06:01;;;;;;;7.23;6.63;;;;;;;;;;4988937;28;20499;-70
2023/01/30 08:08:27;;;;;;;7.67;6.80;;;;;;;;;;4990648;28;20533;-67
2023/01/30 08:10:52;;;;;;;7.00;6.40;;;;;;;;;;4991765;28;20548;-68
2023/01/30 08:13:18;;;;;;;8.77;7.90;;;;;;;;;;4992282;28;20471;-69
2023/01/30 08:15:44;;;;;;;6.93;6.27;;;;;;;;;;4990899;28;20433;-69
2023/01/30 08:18:10;;;;;;;7.63;6.83;;;;;;;;;;4991312;28;20507;-68
2023/01/30 08:20:36;;;;;;;8.60;7.73;;;;;;;;;;4987361;28;20472;-68
2023/01/30 08:23:02;;;;;;;7.23;6.63;;;;;;;;;;4988692;28;20813;-69
2023/01/30 08:25:29;;;;;;;7.57;6.87;;;;;;;;;;4977991;28;20495;-67
2023/01/30 08:27:55;;;;;;;7.37;6.80;;;;;;;;;;4989344;28;20464;-67
2023/01/30 08:30:21;;;;;;;9.33;6.27;;;;;;;;;;4989773;28;20922;-71
2023/01/30 08:32:47;;;;;;;7.60;6.83;;;;;;;;;;4972487;28;20453;-72
2023/01/30 08:35:13;;;;;;;6.93;6.33;;;;;;;;;;4987522;28;21008;-70
2023/01/30 08:37:40;;;;;;;7.90;6.20;;;;;;;;;;4986727;28;20437;-71
2023/01/30 08:40:07;;;;;;;7.30;6.60;;;;;;;;;;4990998;28;20546;-70
2023/01/30 08:42:33;;;;;;;6.87;6.27;;;;;;;;;;4991750;28;20439;-68
2023/01/30 08:44:59;;;;;;;7.53;6.50;;;;;;;;;;4990576;28;20445;-67
2023/01/30 08:47:25;;;;;;;8.83;8.03;;;;;;;;;;4991991;28;20425;-70
2023/01/30 08:49:51;;;;;;;7.00;6.30;;;;;;;;;;4990697;28;20433;-69
2023/01/30 08:52:17;;;;;;;9.90;7.53;;;;;;;;;;4988882;28;20536;-67
2023/01/30 08:54:43;;;;;;;8.90;8.00;;;;;;;;;;4986961;28;20481;-70
2023/01/30 08:57:09;;;;;;;9.50;8.40;;;;;;;;;;4987424;28;20476;-69
2023/01/30 08:59:35;;;;;;;7.50;6.77;;;;;;;;;;4986177;28;20500;-66
2023/01/30 09:02:01;;;;;;;7.70;6.90;;;;;;;;;;4986334;28;20461;-69
2023/01/30 09:04:30;;;;;;;8.97;7.87;;;;;;;;;;4988156;28;20444;-68
2023/01/30 09:06:56;;;;;;;15.97;7.80;;;;;;;;;;4989685;28;20441;-70
2023/01/30 09:09:22;;;;;;;7.67;6.97;;;;;;;;;;4988505;28;20471;-68
2023/01/30 09:11:48;;;;;;;8.30;6.17;;;;;;;;;;4987176;28;20988;-70
2023/01/30 09:14:18;;;;;;;13.70;8.63;;;;;;;;;;4988117;28;20917;-66
2023/01/30 09:16:54;;;;;;;6.90;6.20;;;;;;;;;;4987160;28;20436;-69
2023/01/30 09:19:20;;;;;;;8.17;7.37;;;;;;;;;;4990069;28;20491;-70
2023/01/30 09:21:46;;;;;;;7.83;7.10;;;;;;;;;;4989541;28;20433;-67
2023/01/30 09:24:11;;;;;;;7.40;6.73;;;;;;;;;;4990360;28;20996;-67
2023/01/30 09:26:39;;;;;;;9.17;7.23;;;;;;;;;;4990241;28;21015;-69
2023/01/30 09:29:05;;;;;;;9.37;6.63;;;;;;;;;;4973273;28;20445;-68
2023/01/30 09:31:31;;;;;;;7.60;6.90;;;;;;;;;;4990466;28;20524;-67
2023/01/30 09:33:57;;;;;;;9.40;8.10;;;;;;;;;;4988392;28;20433;-67
2023/01/30 09:36:22;;;;;;;7.77;7.00;;;;;;;;;;4989375;28;20437;-67
2023/01/30 09:38:50;;;;;;;7.80;6.77;;;;;;;;;;4990941;28;20519;-68
2023/01/30 09:41:28;;;;;;;9.53;6.63;;;;;;;;;;4992104;28;20516;-68
2023/01/30 09:43:57;;;;;;;8.70;7.03;;;;;;;;;;4987768;28;20440;-68
2023/01/30 09:46:26;;;;;;;7.00;6.40;;;;;;;;;;4986985;28;20479;-68
2023/01/30 09:49:07;;;;;;;9.27;6.10;;;;;;;;;;4990442;28;20424;-67
2023/01/30 09:51:41;;;;;;;7.90;7.20;;;;;;;;;;4990622;28;20425;-69
2023/01/30 09:54:20;;;;;;;9.03;7.60;;;;;;;;;;4985338;28;20973;-74
2023/01/30 09:56:56;;;;;;;7.40;6.73;;;;;;;;;;4971628;28;20461;-67
2023/01/30 09:59:27;;;;;;;7.30;6.60;;;;;;;;;;4990115;28;20479;-70
2023/01/30 10:02:00;;;;;;;7.77;6.87;;;;;;;;;;4989125;28;20515;-71
2023/01/30 10:04:27;;;;;;;8.23;7.00;;;;;;;;;;4990066;28;20429;-67
2023/01/30 10:06:56;;;;;;;6.97;6.30;;;;;;;;;;4989648;28;20506;-66
2023/01/30 10:09:30;;;;;;;8.97;7.30;;;;;;;;;;4988570;28;20503;-73
2023/01/30 10:11:59;;;;;;;7.40;6.80;;;;;;;;;;4987056;28;20492;-70
2023/01/30 10:14:31;;;;;;;7.00;6.30;;;;;;;;;;4988615;28;20513;-67
2023/01/30 10:17:00;;;;;;;7.63;6.93;;;;;;;;;;4988844;28;20429;-70
2023/01/30 10:19:29;;;;;;;7.70;6.97;;;;;;;;;;4990265;28;20425;-70
2023/01/30 10:22:01;;;;;;;9.73;7.60;;;;;;;;;;4989281;28;20468;-73
2023/01/30 10:24:37;;;;;;;8.77;7.77;;;;;;;;;;4982453;28;20449;-69
2023/01/30 10:27:04;;;;;;;9.33;7.97;;;;;;;;;;4988918;28;20497;-68
2023/01/30 10:29:32;;;;;;;7.73;6.90;;;;;;;;;;4992272;28;20952;-69
2023/01/30 10:32:06;;;;;;;10.70;8.80;;;;;;;;;;4990259;28;20976;-67
2023/01/30 10:34:35;;;;;;;10.27;8.10;;;;;;;;;;4992792;28;20433;-68
2023/01/30 10:37:07;;;;;;;17.03;9.00;;;;;;;;;;4992684;28;20437;-66
2023/01/30 10:39:54;;;;;;;62.00;10.97;;;;;;;;;;4990410;28;20858;-67
2023/01/30 10:42:28;;;;;;;7.43;6.70;;;;;;;;;;4991336;28;20940;-69
2023/01/30 10:45:00;;;;;;;6.40;5.90;;;;;;;;;;4990402;28;20899;-71
2023/01/30 10:47:30;;;;;;;8.27;7.10;;;;;;;;;;4985608;28;20782;-71
2023/01/30 10:49:58;;;;;;;6.37;5.77;;;;;;;;;;4990432;28;20436;-66
2023/01/30 10:52:43;;;;;;;6.63;6.00;;;;;;;;;;4989068;28;20454;-69
2023/01/30 10:55:19;;;;;;;16.70;10.40;;;;;;;;;;4988686;28;20476;-67
2023/01/30 10:57:57;;;;;;;25.50;17.20;;;;;;;;;;4994202;28;20919;-67
2023/01/30 11:00:27;;;;;;;10.27;9.27;;;;;;;;;;4992756;28;20568;-70
2023/01/30 11:02:59;;;;;;;14.07;9.50;;;;;;;;;;4991960;28;20440;-71
2023/01/30 11:05:26;;;;;;;9.77;8.27;;;;;;;;;;4990885;28;20545;-71
2023/01/30 11:07:53;;;;;;;7.80;6.37;;;;;;;;;;4993308;28;20424;-71
2023/01/30 11:10:24;;;;;;;12.67;11.10;;;;;;;;;;4974439;28;20488;-71
2023/01/30 11:13:01;;;;;;;30.03;19.57;;;;;;;;;;4993388;28;20429;-71
2023/01/30 11:15:40;;;;;;;11.27;8.93;;;;;;;;;;4988754;28;20455;-72
2023/01/30 11:18:06;;;;;;;27.80;12.80;;;;;;;;;;4992646;28;20440;-72
2023/01/30 11:20:39;;;;;;;12.13;9.30;;;;;;;;;;4991876;28;20499;-72
2023/01/30 11:23:06;;;;;;;15.33;11.03;;;;;;;;;;4974523;28;20441;-72
2023/01/30 11:25:46;;;;;;;9.00;7.73;;;;;;;;;;4974479;28;20449;-72
2023/01/30 11:28:16;;;;;;;11.80;8.60;;;;;;;;;;4980271;28;20444;-69
2023/01/30 11:30:42;;;;;;;14.30;11.47;;;;;;;;;;4990770;28;20523;-71
2023/01/30 11:33:11;;;;;;;14.87;10.67;;;;;;;;;;4992384;28;20530;-68
2023/01/30 11:35:43;;;;;;;19.63;14.47;;;;;;;;;;4991631;28;20491;-67
2023/01/30 11:38:11;;;;;;;12.47;8.43;;;;;;;;;;4990378;28;20937;-67
2023/01/30 11:40:38;;;;;;;26.13;15.57;;;;;;;;;;4989777;28;20539;-67
2023/01/30 11:43:05;;;;;;;9.40;8.47;;;;;;;;;;4991275;28;21057;-69
2023/01/30 11:45:36;;;;;;;10.90;9.20;;;;;;;;;;4988370;28;20443;-71
2023/01/30 11:48:04;;;;;;;9.57;8.17;;;;;;;;;;4989993;28;20512;-70
2023/01/30 11:50:32;;;;;;;20.80;12.43;;;;;;;;;;4991720;28;20441;-69
2023/01/30 11:53:01;;;;;;;20.87;10.07;;;;;;;;;;4990963;28;20433;-70
2023/01/30 11:55:27;;;;;;;10.60;7.37;;;;;;;;;;4989987;28;20977;-69
2023/01/30 11:57:57;;;;;;;16.53;9.50;;;;;;;;;;4991427;28;20417;-72
2023/01/30 12:00:37;;;;;;;10.93;8.60;;;;;;;;;;4990442;28;20477;-69
2023/01/30 12:03:05;;;;;;;8.90;8.00;;;;;;;;;;4990800;28;20809;-71
2023/01/30 12:05:38;;;;;;;7.87;7.07;;;;;;;;;;4991684;28;20471;-68
2023/01/30 12:08:19;;;;;;;6.80;6.10;;;;;;;;;;4991381;28;20428;-69
2023/01/30 12:10:47;;;;;;;10.13;5.90;;;;;;;;;;4991794;28;20885;-67
2023/01/30 12:13:19;;;;;;;7.63;6.93;;;;;;;;;;4991996;28;20524;-70
2023/01/30 12:15:49;;;;;;;14.70;10.93;;;;;;;;;;4992219;28;20409;-67
2023/01/30 12:18:22;;;;;;;9.97;7.37;;;;;;;;;;4974038;28;20429;-69
2023/01/30 12:21:07;;;;;;;6.27;5.67;;;;;;;;;;4990830;28;20491;-70
2023/01/30 12:23:38;;;;;;;7.63;6.93;;;;;;;;;;4988763;28;20531;-69
2023/01/30 12:26:14;;;;;;;11.20;8.50;;;;;;;;;;4991501;28;20435;-69
2023/01/30 12:28:53;;;;;;;9.13;7.70;;;;;;;;;;4990603;28;20433;-70
2023/01/30 12:31:22;;;;;;;7.97;7.17;;;;;;;;;;4974511;28;20922;-70
2023/01/30 12:33:48;;;;;;;10.73;6.20;;;;;;;;;;4990931;28;20535;-70
2023/01/30 12:36:23;;;;;;;7.67;6.60;;;;;;;;;;4991372;28;20444;-70
2023/01/30 12:38:57;;;;;;;8.57;6.00;;;;;;;;;;4991041;28;20515;-71
2023/01/30 12:41:41;;;;;;;10.60;7.10;;;;;;;;;;4972852;28;20499;-70
2023/01/30 12:44:26;;;;;;;8.83;8.03;;;;;;;;;;4989693;28;20437;-71
2023/01/30 12:46:59;;;;;;;13.40;10.10;;;;;;;;;;4990221;28;20429;-70
2023/01/30 12:49:43;;;;;;;7.23;6.40;;;;;;;;;;4991354;28;20433;-71
2023/01/30 12:52:09;;;;;;;9.40;6.87;;;;;;;;;;4990175;28;20425;-69
2023/01/30 12:54:40;;;;;;;5.27;4.87;;;;;;;;;;5076958;22;20925;-70
2023/01/30 12:57:18;;;;;;;8.00;7.13;;;;;;;;;;5049044;28;20446;-67
2023/01/30 13:00:02;;;;;;;5.73;5.43;;;;;;;;;;5028856;28;20509;-73
2023/01/30 13:02:36;;;;;;;13.10;6.33;;;;;;;;;;5047299;28;20441;-71
2023/01/30 13:05:02;;;;;;;5.27;4.87;;;;;;;;;;5045895;28;20438;-73
2023/01/30 13:07:31;;;;;;;5.47;5.13;;;;;;;;;;5047501;28;20477;-73
2023/01/30 13:10:03;;;;;;;13.47;8.90;;;;;;;;;;5048406;28;20467;-72
2023/01/30 13:12:38;;;;;;;12.53;8.47;;;;;;;;;;5047751;28;20469;-72
2023/01/30 13:15:07;;;;;;;8.07;5.87;;;;;;;;;;5048468;28;20947;-71
2023/01/30 13:17:44;;;;;;;9.87;8.77;;;;;;;;;;5047444;28;20449;-71
2023/01/30 13:20:14;;;;;;;7.17;6.47;;;;;;;;;;5050278;28;20574;-71
2023/01/30 13:22:40;;;;;;;8.97;8.00;;;;;;;;;;5048210;28;20867;-71
2023/01/30 13:25:24;;;;;;;5.30;4.90;;;;;;;;;;5048879;28;21386;-67
2023/01/30 13:27:59;;;;;;;5.83;5.43;;;;;;;;;;5031351;28;20818;-67
2023/01/30 13:30:26;;;;;;;6.00;5.43;;;;;;;;;;5024866;28;20446;-68
2023/01/30 13:33:01;;;;;;;5.10;4.80;;;;;;;;;;5048556;28;20479;-68
2023/01/30 13:35:32;;;;;;;15.20;6.33;;;;;;;;;;5031402;28;20437;-68
2023/01/30 13:37:59;;;;;;;6.23;5.80;;;;;;;;;;5047912;28;20451;-69
2023/01/30 13:40:31;;;;;;;12.27;5.70;;;;;;;;;;5049977;28;21073;-66
2023/01/30 13:43:00;;;;;;;8.27;6.30;;;;;;;;;;5048606;28;20529;-66
2023/01/30 13:45:28;;;;;;;5.40;4.93;;;;;;;;;;5028116;28;20446;-66
2023/01/30 13:48:06;;;;;;;6.77;6.20;;;;;;;;;;5048744;28;20422;-67
2023/01/30 13:50:38;;;;;;;5.70;4.60;;;;;;;;;;5031492;28;20442;-65
2023/01/30 13:53:15;;;;;;;6.90;6.30;;;;;;;;;;5048359;28;20433;-66
2023/01/30 13:55:51;;;;;;;8.77;7.53;;;;;;;;;;5031026;28;21009;-66
2023/01/30 13:58:24;;;;;;;5.00;4.63;;;;;;;;;;5046894;28;20426;-66
2023/01/30 14:00:53;;;;;;;5.30;4.93;;;;;;;;;;5029977;28;20524;-66
2023/01/30 14:03:30;;;;;;;8.73;4.90;;;;;;;;;;5049451;28;20433;-66
2023/01/30 14:05:57;;;;;;;8.57;6.63;;;;;;;;;;5048663;28;20442;-66
2023/01/30 14:08:33;;;;;;;12.20;5.00;;;;;;;;;;5028044;28;20426;-67
2023/01/30 14:10:59;;;;;;;6.50;5.50;;;;;;;;;;5047854;28;20522;-66
2023/01/30 14:13:25;;;;;;;14.07;5.73;;;;;;;;;;5048196;28;20686;-67
2023/01/30 14:15:59;;;;;;;7.10;3.87;;;;;;;;;;5049016;28;20430;-66
2023/01/30 14:18:32;;;;;;;4.57;4.30;;;;;;;;;;5049178;28;20418;-69
2023/01/30 14:21:15;;;;;;;7.67;6.10;;;;;;;;;;5047120;28;21116;-68
2023/01/30 14:23:42;;;;;;;5.90;4.40;;;;;;;;;;5046841;28;20430;-68
2023/01/30 14:26:08;;;;;;;5.10;4.27;;;;;;;;;;5048617;28;20429;-68
2023/01/30 14:28:42;;;;;;;6.13;3.93;;;;;;;;;;5046687;28;20576;-68
2023/01/30 14:31:08;;;;;;;3.80;3.60;;;;;;;;;;5049376;28;20523;-68
2023/01/30 14:33:35;;;;;;;3.87;3.57;;;;;;;;;;5048569;28;20441;-68
2023/01/30 14:36:01;;;;;;;3.20;3.10;;;;;;;;;;5048396;28;20442;-68
2023/01/30 14:38:31;;;;;;;4.43;4.03;;;;;;;;;;5047539;28;20790;-68
2023/01/30 14:40:59;;;;;;;6.23;4.00;;;;;;;;;;5049534;28;20474;-70
2023/01/30 14:43:26;;;;;;;3.83;3.63;;;;;;;;;;5047553;28;20426;-68
2023/01/30 14:45:53;;;;;;;5.73;5.23;;;;;;;;;;5048961;28;20905;-66
2023/01/30 14:48:28;;;;;;;17.30;8.90;;;;;;;;;;5049194;28;20437;-66
2023/01/30 14:51:13;;;;;;;4.30;4.10;;;;;;;;;;5048243;28;20564;-66
2023/01/30 14:53:48;;;;;;;5.33;4.30;;;;;;;;;;5047941;28;20560;-66
2023/01/30 14:56:14;;;;;;;4.07;3.87;;;;;;;;;;5047431;28;20461;-66
2023/01/30 14:58:50;;;;;;;3.63;3.53;;;;;;;;;;5049490;28;20418;-66
2023/01/30 15:01:16;;;;;;;4.40;4.07;;;;;;;;;;5047642;28;20496;-66